Time;durP1;ratioP1;P1;durP2;ratioP2;P2;SDS_P1;SDS_P2;PMS_P1;PMS_P2;Temp;Humidity;BMP_temperature;BMP_pressure;BME280_temperature;BME280_humidity;BME280_pressure;Samples;Min_cycle;Max_cycle;Signal;HPM_P1;HPM_P2
2024/03/29 00:00:46;;;;;;;1.90;1.17;;;11.50;92.00;;;;;;5049086;28;20067;-76
2024/03/29 00:03:12;;;;;;;1.13;0.90;;;11.50;92.10;;;;;;5052930;28;20115;-76
2024/03/29 00:05:38;;;;;;;2.40;0.88;;;11.50;92.10;;;;;;5064727;28;20119;-76
2024/03/29 00:08:04;;;;;;;2.83;1.27;;;11.60;92.20;;;;;;5050796;28;20032;-75
2024/03/29 00:10:30;;;;;;;1.02;0.77;;;11.50;92.20;;;;;;5060792;28;20124;-76
2024/03/29 00:12:56;;;;;;;1.98;0.90;;;11.60;92.30;;;;;;5049498;28;20040;-76
2024/03/29 00:15:21;;;;;;;0.65;0.40;;;11.50;92.20;;;;;;5057090;28;20036;-76
2024/03/29 00:17:47;;;;;;;5.47;1.08;;;11.60;92.20;;;;;;5059866;28;20036;-75
2024/03/29 00:20:13;;;;;;;3.88;1.10;;;11.60;92.10;;;;;;5054464;28;20051;-76
2024/03/29 00:22:38;;;;;;;1.48;0.52;;;11.60;92.10;;;;;;5061223;28;20113;-75
2024/03/29 00:25:04;;;;;;;2.17;0.80;;;11.60;92.00;;;;;;5047552;28;20063;-76
2024/03/29 00:27:30;;;;;;;1.58;0.60;;;11.60;92.10;;;;;;5058548;28;20040;-75
2024/03/29 00:29:56;;;;;;;1.65;1.00;;;11.60;92.10;;;;;;5047956;28;20032;-75
2024/03/29 00:32:22;;;;;;;1.05;0.60;;;11.60;92.20;;;;;;5047411;28;20492;-75
2024/03/29 00:34:50;;;;;;;2.03;1.27;;;11.60;92.20;;;;;;5060138;28;20139;-76
2024/03/29 00:37:16;;;;;;;3.55;0.73;;;11.60;92.30;;;;;;5055856;28;20036;-76
2024/03/29 00:39:42;;;;;;;1.45;1.08;;;11.60;92.10;;;;;;5063439;28;20035;-75
2024/03/29 00:42:15;;;;;;;1.20;1.08;;;11.50;92.00;;;;;;5060845;28;20039;-75
2024/03/29 00:44:41;;;;;;;1.23;0.50;;;11.50;92.00;;;;;;5053537;28;20043;-75
2024/03/29 00:47:07;;;;;;;1.77;1.15;;;11.40;92.10;;;;;;5051398;28;20029;-76
2024/03/29 00:49:33;;;;;;;2.22;0.85;;;11.40;92.10;;;;;;5060282;28;20041;-75
2024/03/29 00:52:00;;;;;;;9.85;0.77;;;11.40;92.10;;;;;;5056459;28;20035;-75
2024/03/29 00:54:25;;;;;;;2.45;0.82;;;11.40;92.20;;;;;;5054235;28;20519;-75
2024/03/29 00:56:52;;;;;;;1.85;0.73;;;11.40;92.20;;;;;;5057916;28;20032;-76
2024/03/29 00:59:18;;;;;;;0.70;0.70;;;11.40;92.20;;;;;;5049415;28;20067;-76
2024/03/29 01:01:44;;;;;;;1.35;0.50;;;11.40;92.20;;;;;;5063271;28;20046;-76
2024/03/29 01:04:10;;;;;;;8.32;1.30;;;11.40;92.20;;;;;;5062729;28;20122;-76
2024/03/29 01:06:36;;;;;;;0.88;0.70;;;11.40;92.20;;;;;;5051953;28;20029;-76
2024/03/29 01:09:03;;;;;;;0.57;0.55;;;11.40;92.20;;;;;;5048256;28;20033;-76
2024/03/29 01:11:29;;;;;;;1.48;0.40;;;11.40;92.20;;;;;;5063939;28;21255;-76
2024/03/29 01:13:54;;;;;;;1.75;0.50;;;11.40;92.20;;;;;;5070156;28;20531;-75
2024/03/29 01:16:20;;;;;;;3.42;0.98;;;11.40;92.20;;;;;;5062841;28;20033;-76
2024/03/29 01:18:46;;;;;;;1.17;0.52;;;11.40;92.10;;;;;;5051497;28;20036;-76
2024/03/29 01:21:17;;;;;;;4.80;0.63;;;11.50;92.20;;;;;;5064773;28;20036;-75
2024/03/29 01:23:43;;;;;;;5.78;1.10;;;11.40;92.10;;;;;;5054407;28;20108;-76
2024/03/29 01:26:11;;;;;;;1.13;0.70;;;11.40;92.20;;;;;;5053284;28;20144;-75
2024/03/29 01:28:37;;;;;;;2.10;0.60;;;11.50;92.20;;;;;;5050833;28;20090;-75
2024/03/29 01:31:03;;;;;;;4.57;0.82;;;11.50;92.20;;;;;;5050558;28;20029;-76
2024/03/29 01:33:32;;;;;;;13.68;1.08;;;11.50;92.10;;;;;;5050953;28;20497;-76
2024/03/29 01:35:58;;;;;;;4.80;1.10;;;11.50;92.00;;;;;;5058859;28;20035;-76
2024/03/29 01:38:24;;;;;;;1.42;1.33;;;11.50;92.00;;;;;;5062402;28;20037;-75
2024/03/29 01:40:50;;;;;;;0.40;0.40;;;11.50;92.00;;;;;;5057510;28;20037;-76
2024/03/29 01:43:16;;;;;;;4.05;0.90;;;11.60;91.90;;;;;;5056643;28;20048;-76
2024/03/29 01:45:43;;;;;;;1.90;0.70;;;11.60;91.90;;;;;;5065197;28;20384;-76
2024/03/29 01:48:09;;;;;;;1.85;0.80;;;11.50;91.90;;;;;;5052732;28;20169;-76
2024/03/29 01:50:36;;;;;;;2.85;1.15;;;11.60;91.90;;;;;;5062068;28;20064;-75
2024/03/29 01:53:03;;;;;;;1.65;1.25;;;11.50;91.90;;;;;;5049559;28;20062;-76
2024/03/29 01:55:31;;;;;;;0.80;0.80;;;11.50;91.90;;;;;;5053874;28;20422;-76
2024/03/29 01:57:58;;;;;;;1.65;0.88;;;11.50;91.90;;;;;;5061595;28;20049;-75
2024/03/29 02:00:24;;;;;;;4.75;1.40;;;11.50;91.90;;;;;;5069035;28;20040;-75
2024/03/29 02:02:52;;;;;;;3.90;1.40;;;11.50;91.90;;;;;;5068247;28;20135;-76
2024/03/29 02:05:18;;;;;;;1.55;0.68;;;11.60;91.90;;;;;;5053408;28;20097;-75
2024/03/29 02:07:47;;;;;;;6.10;1.60;;;11.60;92.10;;;;;;5069994;28;20032;-76
2024/03/29 02:10:14;;;;;;;2.10;0.60;;;11.60;91.90;;;;;;5054512;28;21400;-76
2024/03/29 02:12:39;;;;;;;4.07;0.77;;;11.60;91.90;;;;;;5060293;28;20053;-76
2024/03/29 02:15:05;;;;;;;5.40;0.85;;;11.70;91.80;;;;;;5055933;28;20025;-76
2024/03/29 02:17:34;;;;;;;0.43;0.43;;;11.70;91.90;;;;;;5049925;28;20037;-76
2024/03/29 02:20:00;;;;;;;4.10;0.77;;;11.70;91.70;;;;;;5067179;28;20491;-75
2024/03/29 02:22:28;;;;;;;0.60;0.60;;;11.70;91.70;;;;;;5062035;28;20067;-75
2024/03/29 02:24:55;;;;;;;1.92;0.70;;;11.70;91.60;;;;;;5050275;28;20117;-75
2024/03/29 02:27:22;;;;;;;0.57;0.57;;;11.70;91.50;;;;;;5055990;28;20033;-76
2024/03/29 02:29:48;;;;;;;1.00;0.55;;;11.70;91.70;;;;;;5069202;28;20472;-76
2024/03/29 02:32:14;;;;;;;2.03;0.85;;;11.60;91.70;;;;;;5054948;28;20035;-76
2024/03/29 02:34:39;;;;;;;0.98;0.82;;;11.60;91.70;;;;;;5054511;28;20056;-76
2024/03/29 02:37:06;;;;;;;3.78;1.17;;;11.60;91.70;;;;;;5062562;28;20417;-75
2024/03/29 02:39:31;;;;;;;6.93;1.50;;;11.60;91.70;;;;;;5065050;28;20503;-75
2024/03/29 02:41:57;;;;;;;8.15;2.05;;;11.60;91.60;;;;;;5049664;28;20025;-75
2024/03/29 02:44:23;;;;;;;0.80;0.57;;;11.60;91.70;;;;;;5059079;28;20044;-75
2024/03/29 02:46:48;;;;;;;2.35;1.23;;;11.60;91.70;;;;;;5065886;28;20029;-75
2024/03/29 02:49:14;;;;;;;0.57;0.43;;;11.50;91.70;;;;;;5059437;28;20040;-75
2024/03/29 02:51:40;;;;;;;1.02;0.57;;;11.60;91.80;;;;;;5054182;28;20025;-75
2024/03/29 02:54:05;;;;;;;1.27;1.08;;;11.50;91.80;;;;;;5063466;28;20377;-75
2024/03/29 02:56:31;;;;;;;1.45;0.65;;;11.50;91.90;;;;;;5052613;28;20021;-75
2024/03/29 02:58:56;;;;;;;1.17;0.90;;;11.50;91.80;;;;;;5058813;28;20457;-75
2024/03/29 03:01:22;;;;;;;3.30;1.05;;;11.50;91.90;;;;;;5057383;28;20039;-75
2024/03/29 03:03:48;;;;;;;0.63;0.60;;;11.50;91.90;;;;;;5064068;28;20021;-75
2024/03/29 03:06:13;;;;;;;1.85;1.40;;;11.50;91.90;;;;;;5068476;28;20566;-75
2024/03/29 03:11:23;;;;;;;0.65;0.65;;;11.50;92.00;;;;;;5049548;28;20025;-75
2024/03/29 03:13:49;;;;;;;2.65;1.08;;;11.40;91.90;;;;;;5062417;28;20048;-75
2024/03/29 03:16:15;;;;;;;6.80;0.93;;;11.50;92.00;;;;;;5060412;28;20024;-75
2024/03/29 03:18:40;;;;;;;2.50;0.93;;;11.50;91.80;;;;;;5047355;28;20056;-75
2024/03/29 03:21:06;;;;;;;0.55;0.40;;;11.50;91.90;;;;;;5057739;28;20491;-75
2024/03/29 03:23:31;;;;;;;4.50;1.17;;;11.50;91.80;;;;;;5048476;28;20036;-75
2024/03/29 03:26:00;;;;;;;1.08;0.60;;;11.60;91.80;;;;;;5048160;28;20681;-75
2024/03/29 03:28:26;;;;;;;1.55;0.73;;;11.60;91.70;;;;;;5059747;28;20491;-75
2024/03/29 03:30:54;;;;;;;5.25;1.45;;;11.60;91.50;;;;;;5053047;28;20033;-75
2024/03/29 03:33:20;;;;;;;2.90;0.75;;;11.60;91.60;;;;;;5068873;28;20070;-75
2024/03/29 03:35:46;;;;;;;1.33;0.77;;;11.50;91.50;;;;;;5058128;28;20063;-75
2024/03/29 03:38:13;;;;;;;2.60;0.75;;;11.50;91.50;;;;;;5046439;28;20033;-75
2024/03/29 03:40:39;;;;;;;10.73;1.52;;;11.50;91.70;;;;;;5048483;28;20039;-75
2024/03/29 03:43:05;;;;;;;4.10;0.70;;;11.40;91.60;;;;;;5053456;28;20036;-75
2024/03/29 03:45:40;;;;;;;2.58;0.82;;;11.40;91.60;;;;;;5065939;28;20031;-75
2024/03/29 03:48:09;;;;;;;3.05;1.13;;;11.40;91.70;;;;;;5060166;28;20522;-75
2024/03/29 03:50:35;;;;;;;1.55;0.65;;;11.40;91.70;;;;;;5058833;28;20047;-75
2024/03/29 03:53:01;;;;;;;1.00;0.95;;;11.40;91.80;;;;;;5059208;28;20032;-75
2024/03/29 03:55:26;;;;;;;1.40;0.73;;;11.40;91.80;;;;;;5052464;28;20033;-75
2024/03/29 03:57:56;;;;;;;0.52;0.52;;;11.40;91.80;;;;;;5057406;28;20234;-75
2024/03/29 04:00:22;;;;;;;11.82;1.27;;;11.40;91.80;;;;;;5049516;28;20147;-75
2024/03/29 04:02:52;;;;;;;6.72;1.00;;;11.30;91.70;;;;;;5063626;28;20107;-76
2024/03/29 04:05:21;;;;;;;0.80;0.60;;;11.30;91.80;;;;;;5061012;28;20033;-75
2024/03/29 04:07:47;;;;;;;0.68;0.60;;;11.30;91.90;;;;;;5059736;28;20036;-75
2024/03/29 04:10:13;;;;;;;2.13;0.88;;;11.30;91.90;;;;;;5066998;28;20033;-75
2024/03/29 04:12:39;;;;;;;0.93;0.80;;;11.30;91.80;;;;;;5068305;28;20141;-75
2024/03/29 04:15:05;;;;;;;0.57;0.57;;;11.30;91.80;;;;;;5053471;28;20379;-75
2024/03/29 04:17:32;;;;;;;1.65;1.15;;;11.20;91.90;;;;;;5055111;28;20041;-75
2024/03/29 04:19:59;;;;;;;4.88;0.80;;;11.10;91.90;;;;;;5046033;28;20025;-75
2024/03/29 04:22:25;;;;;;;2.25;0.60;;;11.10;91.90;;;;;;5062043;28;20055;-75
2024/03/29 04:24:51;;;;;;;3.30;0.50;;;11.10;91.90;;;;;;5060738;28;20029;-75
2024/03/29 04:27:17;;;;;;;3.13;1.05;;;11.10;92.00;;;;;;5049946;28;20041;-75
2024/03/29 04:29:42;;;;;;;4.57;1.13;;;11.10;92.00;;;;;;5065128;28;20028;-75
2024/03/29 04:32:08;;;;;;;0.50;0.50;;;11.10;92.00;;;;;;5055325;28;20025;-75
2024/03/29 04:34:34;;;;;;;1.60;0.88;;;11.10;92.10;;;;;;5063871;28;20103;-75
2024/03/29 04:37:00;;;;;;;0.65;0.65;;;11.10;92.00;;;;;;5048311;28;20104;-75
2024/03/29 04:39:25;;;;;;;0.50;0.50;;;11.10;92.10;;;;;;5048582;28;20539;-75
2024/03/29 04:41:51;;;;;;;0.50;0.50;;;11.10;92.10;;;;;;5048810;28;20029;-75
2024/03/29 04:44:24;;;;;;;3.47;0.98;;;11.10;92.10;;;;;;5048200;28;20025;-75
2024/03/29 04:46:50;;;;;;;0.88;0.70;;;11.10;92.10;;;;;;5065107;28;20039;-75
2024/03/29 04:49:22;;;;;;;3.90;1.15;;;11.20;92.00;;;;;;5051727;28;20033;-75
2024/03/29 04:51:51;;;;;;;7.95;0.90;;;11.10;92.30;;;;;;5068818;28;20037;-75
2024/03/29 04:54:17;;;;;;;0.50;0.50;;;11.10;92.10;;;;;;5060257;28;20040;-75
2024/03/29 04:56:43;;;;;;;0.93;0.57;;;11.20;92.10;;;;;;5063438;28;20029;-75
2024/03/29 04:59:10;;;;;;;2.05;0.60;;;11.20;92.00;;;;;;5051884;28;20061;-76
2024/03/29 05:01:36;;;;;;;3.83;0.90;;;11.10;92.00;;;;;;5068834;28;20029;-76
2024/03/29 05:04:02;;;;;;;0.73;0.70;;;11.10;92.00;;;;;;5051294;28;20029;-76
2024/03/29 05:06:29;;;;;;;4.55;1.48;;;11.20;91.90;;;;;;5053144;28;20451;-74
2024/03/29 05:08:55;;;;;;;5.72;0.88;;;11.20;91.90;;;;;;5050894;28;20120;-74
2024/03/29 05:11:21;;;;;;;0.40;0.40;;;11.20;92.00;;;;;;5052039;28;20025;-75
2024/03/29 05:13:47;;;;;;;0.68;0.47;;;11.10;91.90;;;;;;5064667;28;20395;-76
2024/03/29 05:16:12;;;;;;;3.00;0.80;;;11.20;91.80;;;;;;5051629;28;20087;-76
2024/03/29 05:18:39;;;;;;;4.15;0.77;;;11.10;91.90;;;;;;5065265;28;20037;-75
2024/03/29 05:21:04;;;;;;;1.17;0.40;;;11.10;91.90;;;;;;5051276;28;20040;-75
2024/03/29 05:23:30;;;;;;;3.50;1.27;;;11.10;91.80;;;;;;5056284;28;20037;-75
2024/03/29 05:25:56;;;;;;;0.95;0.50;;;11.20;91.90;;;;;;5063459;28;20516;-76
2024/03/29 05:28:21;;;;;;;0.60;0.60;;;11.10;91.90;;;;;;5064434;28;20043;-76
2024/03/29 05:30:47;;;;;;;3.13;0.80;;;11.10;92.00;;;;;;5054376;28;20078;-75
2024/03/29 05:33:13;;;;;;;3.70;0.82;;;11.10;91.90;;;;;;5063242;28;20075;-75
2024/03/29 05:35:38;;;;;;;0.95;0.60;;;11.20;92.00;;;;;;5068004;28;20032;-76
2024/03/29 05:38:04;;;;;;;0.40;0.40;;;11.20;91.90;;;;;;5063272;28;20182;-76
2024/03/29 05:40:30;;;;;;;4.55;1.00;;;11.20;91.80;;;;;;5062896;28;20032;-76
2024/03/29 05:42:56;;;;;;;1.25;0.40;;;11.20;91.90;;;;;;5070455;28;20523;-76
2024/03/29 05:45:25;;;;;;;1.10;0.95;;;11.10;91.90;;;;;;5058381;28;20029;-76
2024/03/29 05:47:53;;;;;;;0.55;0.50;;;11.10;91.90;;;;;;5057623;28;20119;-75
2024/03/29 05:50:19;;;;;;;0.40;0.40;;;11.10;92.00;;;;;;5057359;28;20025;-75
2024/03/29 05:52:44;;;;;;;0.85;0.55;;;11.10;92.00;;;;;;5052948;28;20040;-75
2024/03/29 05:55:10;;;;;;;0.50;0.50;;;11.10;92.10;;;;;;5066541;28;20897;-75
2024/03/29 05:57:40;;;;;;;1.38;1.05;;;11.10;92.10;;;;;;5056918;28;20076;-75
2024/03/29 06:00:08;;;;;;;1.55;1.02;;;11.10;92.00;;;;;;5058859;28;20495;-75
2024/03/29 06:02:34;;;;;;;2.25;0.45;;;11.10;92.10;;;;;;5065605;28;20036;-75
2024/03/29 06:05:00;;;;;;;0.60;0.60;;;11.10;92.10;;;;;;5054879;28;20044;-75
2024/03/29 06:07:28;;;;;;;0.40;0.32;;;11.10;92.10;;;;;;5061027;28;20040;-75
2024/03/29 06:09:53;;;;;;;1.40;0.80;;;11.10;92.10;;;;;;5050204;28;20126;-75
2024/03/29 06:12:19;;;;;;;3.67;0.75;;;11.10;92.20;;;;;;5056011;28;20041;-75
2024/03/29 06:17:29;;;;;;;0.63;0.60;;;11.20;92.30;;;;;;5057319;28;20391;-75
2024/03/29 06:19:56;;;;;;;8.25;1.63;;;11.10;92.20;;;;;;5056564;28;20033;-76
2024/03/29 06:22:25;;;;;;;1.48;0.60;;;11.10;92.30;;;;;;5050976;28;20555;-75
2024/03/29 06:24:51;;;;;;;2.00;0.75;;;11.20;92.30;;;;;;5046442;28;20029;-75
2024/03/29 06:27:22;;;;;;;0.47;0.47;;;11.20;92.40;;;;;;5047820;28;20040;-76
2024/03/29 06:29:49;;;;;;;0.50;0.50;;;11.20;92.30;;;;;;5048471;28;20488;-75
2024/03/29 06:32:16;;;;;;;1.30;0.40;;;11.20;92.30;;;;;;5049332;28;20049;-76
2024/03/29 06:34:41;;;;;;;0.40;0.40;;;11.20;92.40;;;;;;5046927;28;20485;-76
2024/03/29 06:37:07;;;;;;;2.63;0.40;;;11.20;92.40;;;;;;5058499;28;20052;-76
2024/03/29 06:39:33;;;;;;;0.63;0.63;;;11.30;92.30;;;;;;5055857;28;20036;-76
2024/03/29 06:41:59;;;;;;;3.75;1.17;;;11.30;92.30;;;;;;5064034;28;20492;-76
2024/03/29 06:44:24;;;;;;;1.00;0.47;;;11.30;92.40;;;;;;5062161;28;20434;-76
2024/03/29 06:46:51;;;;;;;0.40;0.40;;;11.40;92.40;;;;;;5061727;28;20074;-76
2024/03/29 06:49:17;;;;;;;4.82;0.80;;;11.40;92.30;;;;;;5060443;28;20094;-76
2024/03/29 06:51:43;;;;;;;0.85;0.60;;;11.40;92.40;;;;;;5055216;28;20029;-75
2024/03/29 06:54:09;;;;;;;2.50;0.40;;;11.50;92.40;;;;;;5060660;28;21548;-75
2024/03/29 06:56:35;;;;;;;0.55;0.50;;;11.50;92.40;;;;;;5060603;28;20032;-76
2024/03/29 06:59:00;;;;;;;0.60;0.60;;;11.50;92.30;;;;;;5022345;28;1056392;-76
2024/03/29 07:01:26;;;;;;;2.97;0.70;;;11.50;92.30;;;;;;5051887;28;20488;-75
2024/03/29 07:03:52;;;;;;;1.10;0.75;;;11.40;92.40;;;;;;5061868;28;20070;-75
2024/03/29 07:06:17;;;;;;;1.90;1.13;;;11.40;92.40;;;;;;5062350;28;20551;-75
2024/03/29 07:08:43;;;;;;;1.42;0.43;;;11.40;92.40;;;;;;5047301;28;20809;-75
2024/03/29 07:11:09;;;;;;;1.50;0.75;;;11.50;92.50;;;;;;5051742;28;20206;-75
2024/03/29 07:13:35;;;;;;;4.20;0.77;;;11.50;92.50;;;;;;5048334;28;20033;-75
2024/03/29 07:16:01;;;;;;;2.08;0.70;;;11.50;92.60;;;;;;5050326;28;20036;-75
2024/03/29 07:18:27;;;;;;;1.27;0.85;;;11.50;92.60;;;;;;5049646;28;20040;-76
2024/03/29 07:20:53;;;;;;;3.75;1.20;;;11.50;92.70;;;;;;5050277;28;20043;-75
2024/03/29 07:23:20;;;;;;;0.60;0.60;;;11.50;92.70;;;;;;5051129;28;20074;-75
2024/03/29 07:25:57;;;;;;;0.38;0.38;;;11.60;92.70;;;;;;5055994;28;20447;-75
2024/03/29 07:28:22;;;;;;;1.50;0.68;;;11.60;92.70;;;;;;5050461;28;20053;-75
2024/03/29 07:30:50;;;;;;;0.57;0.50;;;11.70;92.70;;;;;;5048017;28;20048;-75
2024/03/29 07:33:15;;;;;;;0.70;0.38;;;11.70;92.70;;;;;;5049731;28;20128;-75
2024/03/29 07:35:41;;;;;;;1.80;0.60;;;11.70;92.60;;;;;;5060319;28;20112;-76
2024/03/29 07:38:07;;;;;;;0.75;0.50;;;11.70;92.70;;;;;;5056512;28;20040;-79
2024/03/29 07:40:34;;;;;;;2.15;0.52;;;11.70;92.60;;;;;;5048936;28;20033;-74
2024/03/29 07:43:00;;;;;;;1.95;0.82;;;11.80;92.70;;;;;;5060757;28;20040;-74
2024/03/29 07:45:26;;;;;;;1.02;0.90;;;11.80;92.80;;;;;;5049648;28;20040;-74
2024/03/29 07:47:53;;;;;;;1.33;0.73;;;11.80;92.70;;;;;;5048948;28;20041;-74
2024/03/29 07:50:19;;;;;;;5.22;0.63;;;11.90;92.70;;;;;;5052926;28;20112;-74
2024/03/29 07:52:45;;;;;;;0.77;0.60;;;11.90;92.80;;;;;;5057103;28;20067;-74
2024/03/29 07:55:11;;;;;;;3.03;1.27;;;12.00;92.80;;;;;;5051179;28;20687;-75
2024/03/29 07:57:36;;;;;;;0.75;0.50;;;12.00;92.80;;;;;;5047715;28;20142;-74
2024/03/29 08:00:03;;;;;;;5.45;1.10;;;12.00;92.80;;;;;;5060690;28;20033;-75
2024/03/29 08:02:32;;;;;;;1.05;0.65;;;12.00;93.00;;;;;;5059504;28;20082;-76
2024/03/29 08:04:58;;;;;;;0.55;0.55;;;12.00;93.00;;;;;;5049807;28;20127;-75
2024/03/29 08:07:24;;;;;;;1.35;0.45;;;12.10;93.00;;;;;;5050288;28;20032;-76
2024/03/29 08:09:52;;;;;;;0.50;0.50;;;12.10;93.00;;;;;;5047748;28;20036;-75
2024/03/29 08:12:18;;;;;;;0.52;0.38;;;12.10;93.00;;;;;;5050195;28;20048;-76
2024/03/29 08:14:44;;;;;;;0.90;0.60;;;12.10;93.10;;;;;;5059150;28;20045;-75
2024/03/29 08:17:10;;;;;;;0.40;0.40;;;12.00;93.20;;;;;;5056229;28;20043;-75
2024/03/29 08:19:36;;;;;;;1.30;0.40;;;12.00;93.30;;;;;;5052207;28;20559;-77
2024/03/29 08:22:01;;;;;;;4.90;0.80;;;12.00;93.30;;;;;;5048856;28;20035;-76
2024/03/29 08:24:30;;;;;;;1.55;0.38;;;12.00;93.30;;;;;;5060911;28;20032;-73
2024/03/29 08:26:58;;;;;;;0.95;0.73;;;12.00;93.50;;;;;;5052654;28;20037;-74
2024/03/29 08:29:24;;;;;;;0.90;0.52;;;12.00;93.50;;;;;;5061490;28;20622;-74
2024/03/29 08:31:49;;;;;;;1.85;1.20;;;12.10;93.50;;;;;;5059384;28;20040;-75
2024/03/29 08:34:15;;;;;;;2.50;0.93;;;12.10;93.60;;;;;;5049719;28;20040;-75
2024/03/29 08:36:41;;;;;;;0.98;0.68;;;12.10;93.70;;;;;;5057898;28;20115;-75
2024/03/29 08:39:06;;;;;;;1.48;0.93;;;12.20;93.70;;;;;;5053793;28;20138;-75
2024/03/29 08:41:32;;;;;;;0.50;0.50;;;12.20;93.70;;;;;;5067610;28;20524;-75
2024/03/29 08:43:58;;;;;;;2.17;0.70;;;12.20;93.70;;;;;;5067739;28;20032;-75
2024/03/29 08:46:23;;;;;;;1.95;0.82;;;12.30;93.70;;;;;;5060756;28;20033;-75
2024/03/29 08:48:49;;;;;;;0.68;0.60;;;12.40;93.70;;;;;;5047620;28;20032;-75
2024/03/29 08:51:15;;;;;;;2.00;0.75;;;12.30;93.60;;;;;;5058938;28;20017;-76
2024/03/29 08:53:41;;;;;;;1.02;0.43;;;12.40;93.60;;;;;;5066000;28;20051;-77
2024/03/29 08:56:07;;;;;;;0.40;0.40;;;12.50;93.60;;;;;;5063937;28;20025;-76
2024/03/29 08:58:33;;;;;;;0.85;0.60;;;12.50;93.50;;;;;;5063009;28;20488;-76
2024/03/29 09:01:00;;;;;;;0.60;0.60;;;12.50;93.50;;;;;;5051519;28;20025;-77
2024/03/29 09:03:25;;;;;;;1.00;0.60;;;12.50;93.50;;;;;;5062646;28;20044;-77
2024/03/29 09:05:51;;;;;;;3.08;1.10;;;12.60;93.60;;;;;;5050126;28;20031;-77
2024/03/29 09:08:18;;;;;;;1.85;0.88;;;12.70;93.60;;;;;;5056671;28;20042;-75
2024/03/29 09:10:43;;;;;;;1.17;0.55;;;12.70;93.50;;;;;;5059365;28;20383;-77
2024/03/29 09:13:10;;;;;;;3.40;0.88;;;12.80;93.50;;;;;;5051782;28;20040;-76
2024/03/29 09:15:36;;;;;;;1.15;0.55;;;12.80;93.40;;;;;;5059825;28;20549;-76
2024/03/29 09:18:09;;;;;;;2.13;0.85;;;12.80;93.30;;;;;;5049607;28;20036;-76
2024/03/29 09:20:35;;;;;;;0.43;0.43;;;12.80;93.40;;;;;;5048290;28;20039;-77
2024/03/29 09:23:01;;;;;;;1.55;0.82;;;12.90;93.50;;;;;;5053554;28;20036;-76
2024/03/29 09:25:26;;;;;;;3.70;1.10;;;13.00;93.90;;;;;;5053445;28;20365;-78
2024/03/29 09:27:52;;;;;;;1.30;0.77;;;13.00;93.50;;;;;;5052426;28;20621;-76
2024/03/29 09:30:19;;;;;;;2.47;0.73;;;13.00;93.50;;;;;;5061831;28;20035;-81
2024/03/29 09:32:45;;;;;;;2.17;1.10;;;13.00;93.50;;;;;;5064378;28;20114;-80
2024/03/29 09:35:11;;;;;;;0.52;0.52;;;13.10;93.60;;;;;;5065349;28;20765;-84
2024/03/29 09:37:37;;;;;;;1.38;0.93;;;13.10;93.70;;;;;;5055798;28;20047;-76
2024/03/29 09:40:04;;;;;;;2.53;0.95;;;13.10;93.70;;;;;;5056240;28;20028;-77
2024/03/29 09:42:32;;;;;;;2.58;0.90;;;13.20;93.90;;;;;;5050967;28;20086;-77
2024/03/29 09:44:59;;;;;;;1.48;0.45;;;13.20;93.60;;;;;;5050356;28;20111;-79
2024/03/29 09:47:26;;;;;;;0.82;0.73;;;13.30;93.60;;;;;;5062691;28;20024;-81
2024/03/29 09:49:54;;;;;;;0.38;0.38;;;13.40;93.70;;;;;;5067816;28;20446;-79
2024/03/29 09:52:20;;;;;;;0.98;0.90;;;13.40;93.80;;;;;;5051586;28;20064;-79
2024/03/29 09:54:46;;;;;;;9.80;1.35;;;13.40;93.70;;;;;;5061641;28;20075;-79
2024/03/29 09:57:13;;;;;;;0.60;0.60;;;13.50;94.10;;;;;;5061897;28;20075;-79
2024/03/29 09:59:39;;;;;;;3.13;1.20;;;13.50;94.10;;;;;;5056906;28;20498;-79
2024/03/29 10:02:14;;;;;;;1.70;1.33;;;13.50;93.90;;;;;;5062892;28;20033;-79
2024/03/29 10:04:41;;;;;;;0.55;0.43;;;13.50;93.90;;;;;;5064391;28;20028;-79
2024/03/29 10:07:07;;;;;;;2.00;0.60;;;13.60;93.80;;;;;;5063329;28;20143;-77
2024/03/29 10:09:36;;;;;;;0.52;0.47;;;13.70;94.30;;;;;;5058821;28;20116;-76
2024/03/29 10:12:02;;;;;;;0.50;0.50;;;13.70;94.60;;;;;;5056727;28;20515;-79
2024/03/29 10:14:30;;;;;;;0.95;0.30;;;13.70;93.90;;;;;;5060996;28;20039;-78
2024/03/29 10:16:58;;;;;;;0.90;0.55;;;13.80;93.80;;;;;;5053348;28;20040;-77
2024/03/29 10:19:23;;;;;;;0.93;0.73;;;13.80;93.80;;;;;;5050220;28;20090;-80
2024/03/29 10:21:49;;;;;;;0.80;0.68;;;13.80;93.60;;;;;;5055565;28;20029;-78
2024/03/29 10:24:16;;;;;;;0.68;0.60;;;13.70;93.70;;;;;;5050153;28;20385;-77
2024/03/29 10:26:46;;;;;;;0.73;0.60;;;13.70;94.10;;;;;;5057720;28;20132;-77
2024/03/29 10:29:11;;;;;;;0.95;0.60;;;13.70;94.00;;;;;;5066741;28;20476;-77
2024/03/29 10:31:37;;;;;;;2.08;1.00;;;13.70;94.00;;;;;;5053394;28;20024;-77
2024/03/29 10:34:06;;;;;;;4.13;1.30;;;13.70;94.00;;;;;;5052428;28;20037;-77
2024/03/29 10:36:35;;;;;;;0.82;0.77;;;13.70;94.10;;;;;;5055321;28;20487;-77
2024/03/29 10:39:13;;;;;;;0.73;0.73;;;13.70;94.20;;;;;;5058370;28;20457;-78
2024/03/29 10:41:43;;;;;;;0.60;0.60;;;13.70;94.30;;;;;;5056338;28;20048;-77
2024/03/29 10:44:14;;;;;;;1.27;0.40;;;13.70;94.30;;;;;;5057274;28;20123;-76
2024/03/29 10:46:47;;;;;;;0.63;0.60;;;13.70;94.40;;;;;;5057732;28;20136;-78
2024/03/29 10:49:16;;;;;;;3.78;0.73;;;13.70;94.40;;;;;;5052028;28;20029;-77
2024/03/29 10:51:43;;;;;;;1.45;0.90;;;13.70;94.50;;;;;;5067835;28;20087;-77
2024/03/29 10:54:10;;;;;;;0.75;0.35;;;13.80;94.40;;;;;;5061848;28;20498;-77
2024/03/29 10:56:37;;;;;;;0.73;0.68;;;13.80;94.40;;;;;;5051376;28;20052;-76
2024/03/29 10:59:21;;;;;;;2.22;0.77;;;13.90;94.40;;;;;;5063254;28;20075;-77
2024/03/29 11:01:53;;;;;;;1.67;0.80;;;13.80;94.30;;;;;;5052177;28;20073;-77
2024/03/29 11:04:29;;;;;;;2.22;0.70;;;13.90;94.10;;;;;;5054844;28;20036;-77
2024/03/29 11:06:58;;;;;;;0.80;0.80;;;13.80;94.10;;;;;;5049349;28;20029;-77
2024/03/29 11:09:29;;;;;;;0.82;0.70;;;13.90;94.30;;;;;;5057503;28;20029;-76
2024/03/29 11:11:58;;;;;;;0.60;0.60;;;13.90;94.30;;;;;;5061792;28;20024;-77
2024/03/29 11:14:44;;;;;;;0.88;0.88;;;14.00;94.40;;;;;;5049984;28;20047;-77
2024/03/29 11:17:13;;;;;;;0.80;0.80;;;14.00;94.20;;;;;;5053086;28;20044;-78
2024/03/29 11:19:40;;;;;;;0.85;0.82;;;14.00;94.30;;;;;;5052952;28;20040;-79
2024/03/29 11:22:06;;;;;;;0.70;0.70;;;14.00;94.20;;;;;;5063960;28;20100;-82
2024/03/29 11:24:33;;;;;;;0.75;0.68;;;14.00;94.20;;;;;;5059768;28;20361;-77
2024/03/29 11:27:07;;;;;;;0.93;0.85;;;14.10;94.20;;;;;;5050715;28;20043;-79
2024/03/29 11:29:38;;;;;;;0.45;0.43;;;14.10;94.10;;;;;;5048649;28;20037;-75
2024/03/29 11:32:04;;;;;;;2.53;0.70;;;14.20;94.20;;;;;;5054032;28;20047;-75
2024/03/29 11:34:33;;;;;;;0.40;0.40;;;14.30;94.10;;;;;;5052716;28;20063;-76
2024/03/29 11:37:29;;;;;;;0.65;0.65;;;14.30;94.20;;;;;;5064879;28;20090;-76
2024/03/29 11:39:55;;;;;;;3.70;1.20;;;14.30;94.10;;;;;;5053613;28;20029;-76
2024/03/29 11:42:36;;;;;;;3.20;0.73;;;14.40;94.20;;;;;;5059596;28;20079;-77
2024/03/29 11:45:02;;;;;;;0.95;0.70;;;14.40;94.30;;;;;;5053663;28;20040;-77
2024/03/29 11:47:28;;;;;;;4.35;0.95;;;14.50;94.40;;;;;;5060844;28;20041;-78
2024/03/29 11:49:57;;;;;;;0.93;0.82;;;14.60;94.30;;;;;;5063250;28;20035;-76
2024/03/29 11:52:22;;;;;;;0.50;0.50;;;14.60;94.10;;;;;;5051269;28;20119;-77
2024/03/29 11:54:48;;;;;;;2.45;1.10;;;14.70;94.10;;;;;;5059694;28;20147;-76
2024/03/29 11:57:14;;;;;;;1.00;0.73;;;14.80;94.00;;;;;;5064293;28;20060;-77
2024/03/29 11:59:40;;;;;;;1.92;1.17;;;14.80;94.00;;;;;;5057998;28;20122;-81
2024/03/29 12:02:11;;;;;;;7.63;1.70;;;14.80;94.00;;;;;;5063425;28;20365;-78
2024/03/29 12:04:40;;;;;;;2.78;0.82;;;14.90;94.00;;;;;;5059771;28;20032;-78
2024/03/29 12:07:05;;;;;;;1.58;1.10;;;14.90;94.00;;;;;;5063903;28;20034;-78
2024/03/29 12:09:31;;;;;;;4.78;1.20;;;15.00;93.90;;;;;;5062347;28;20029;-76
2024/03/29 12:11:59;;;;;;;2.33;1.60;;;15.00;93.80;;;;;;5052837;28;20024;-77
2024/03/29 12:14:27;;;;;;;4.25;1.23;;;15.10;93.90;;;;;;5065642;28;20048;-77
2024/03/29 12:16:53;;;;;;;3.25;1.45;;;15.20;93.80;;;;;;5055660;28;20611;-75
2024/03/29 12:19:27;;;;;;;5.20;1.67;;;15.10;93.70;;;;;;5051919;28;20599;-77
2024/03/29 12:21:53;;;;;;;4.85;0.60;;;15.20;93.60;;;;;;5059433;28;20761;-76
2024/03/29 12:24:20;;;;;;;1.45;1.00;;;15.20;93.60;;;;;;5049987;28;20068;-77
2024/03/29 12:26:49;;;;;;;1.42;1.33;;;15.30;93.70;;;;;;5054471;28;20040;-77
2024/03/29 12:29:15;;;;;;;3.47;1.60;;;15.20;93.40;;;;;;5049941;28;20510;-77
2024/03/29 12:31:41;;;;;;;1.38;1.15;;;15.30;93.50;;;;;;5046659;28;20041;-77
2024/03/29 12:34:07;;;;;;;0.70;0.70;;;15.30;93.90;;;;;;5061315;28;20051;-76
2024/03/29 12:36:33;;;;;;;3.08;1.40;;;15.30;93.60;;;;;;5058426;28;20159;-78
2024/03/29 12:39:02;;;;;;;3.58;1.00;;;15.30;93.40;;;;;;5060710;28;20033;-77
2024/03/29 12:41:31;;;;;;;1.88;1.40;;;15.40;93.60;;;;;;5062876;28;20055;-77
2024/03/29 12:43:57;;;;;;;1.35;0.75;;;15.50;93.70;;;;;;5059535;28;20051;-77
2024/03/29 12:46:23;;;;;;;1.98;0.85;;;15.60;93.80;;;;;;5055531;28;20021;-77
2024/03/29 12:48:56;;;;;;;0.70;0.70;;;15.50;93.50;;;;;;5065359;28;20464;-77